Time;durP1;ratioP1;P1;durP2;ratioP2;P2;SDS_P1;SDS_P2;PMS_P1;PMS_P2;Temp;Humidity;BMP_temperature;BMP_pressure;BME280_temperature;BME280_humidity;BME280_pressure;Samples;Min_cycle;Max_cycle;Signal;HPM_P1;HPM_P2
2022/01/30 00:00:23;;;;;;;13.97;3.03;;;;;;;5.80;72.66;100998.13;5025378;28;20241;-81
2022/01/30 00:02:51;;;;;;;12.33;2.60;;;;;;;5.78;72.61;101001.75;5030886;28;20224;-80
2022/01/30 00:05:18;;;;;;;7.03;2.23;;;;;;;5.78;72.37;100993.81;5020219;28;20207;-81
2022/01/30 00:07:44;;;;;;;14.00;2.50;;;;;;;5.77;72.05;101000.88;5029378;28;20240;-81
2022/01/30 00:10:13;;;;;;;13.23;2.10;;;;;;;5.77;72.81;101003.53;5020661;28;20213;-81
2022/01/30 00:12:46;;;;;;;13.03;1.97;;;;;;;5.77;72.10;100989.47;5024681;28;20546;-81
2022/01/30 00:15:15;;;;;;;9.60;2.43;;;;;;;5.74;72.10;101008.06;5025626;28;20198;-81
2022/01/30 00:17:46;;;;;;;12.23;2.07;;;;;;;5.73;72.09;101001.09;5015824;28;20292;-81
2022/01/30 00:20:18;;;;;;;10.90;2.47;;;;;;;5.72;72.27;100994.94;5020590;28;20198;-81
2022/01/30 00:22:50;;;;;;;14.50;2.43;;;;;;;5.70;71.99;101014.41;5023623;28;20210;-81
2022/01/30 00:25:25;;;;;;;11.47;2.13;;;;;;;5.70;71.68;100969.50;5030110;28;20252;-80
2022/01/30 00:28:02;;;;;;;13.07;2.03;;;;;;;5.67;71.44;101018.03;5020656;28;20697;-81
2022/01/30 00:30:33;;;;;;;13.77;2.53;;;;;;;5.69;71.24;100999.47;5028847;28;20206;-81
2022/01/30 00:33:00;;;;;;;11.40;2.03;;;;;;;5.68;71.37;101017.09;5024935;28;20559;-80
2022/01/30 00:35:26;;;;;;;11.97;3.07;;;;;;;5.68;71.70;101013.59;5025523;28;20211;-81
2022/01/30 00:37:54;;;;;;;12.07;2.50;;;;;;;5.64;71.32;101020.78;5024489;28;20240;-81
2022/01/30 00:40:20;;;;;;;10.70;2.33;;;;;;;5.67;71.45;101035.66;5027990;28;20268;-81
2022/01/30 00:42:47;;;;;;;13.27;2.47;;;;;;;5.64;71.22;101020.78;5025516;28;20679;-81
2022/01/30 00:45:15;;;;;;;11.60;2.77;;;;;;;5.63;71.33;101026.97;5024977;28;20587;-81
2022/01/30 00:47:41;;;;;;;13.60;3.07;;;;;;;5.62;71.11;101013.81;5027880;28;20685;-81
2022/01/30 00:50:09;;;;;;;10.40;3.20;;;;;;;5.66;70.77;101004.88;5028152;28;20209;-81
2022/01/30 00:52:35;;;;;;;15.53;3.00;;;;;;;5.65;70.65;101008.44;5026655;28;20207;-81
2022/01/30 00:55:03;;;;;;;10.53;2.43;;;;;;;5.67;70.94;101006.59;5028723;28;20218;-81
2022/01/30 00:57:30;;;;;;;9.40;2.63;;;;;;;5.69;70.47;100988.91;5024967;28;20576;-81
2022/01/30 00:59:56;;;;;;;16.70;3.20;;;;;;;5.73;70.32;101004.56;5026484;28;20203;-81
2022/01/30 01:02:24;;;;;;;11.23;2.67;;;;;;;5.70;69.65;101015.28;5024884;28;20320;-81
2022/01/30 01:04:51;;;;;;;11.27;2.93;;;;;;;5.72;69.93;101020.50;5023322;28;20205;-80
2022/01/30 01:07:19;;;;;;;14.27;3.10;;;;;;;5.75;69.77;101026.50;5024044;28;20784;-81
2022/01/30 01:09:54;;;;;;;11.43;2.17;;;;;;;5.76;69.73;101025.59;5027350;28;20297;-81
2022/01/30 01:12:54;;;;;;;14.43;3.10;;;;;;;5.76;69.88;101037.94;5027242;28;20660;-81
2022/01/30 01:23:22;;;;;;;10.80;2.70;;;;;;;5.76;68.59;101027.38;5024334;28;20271;-80
2022/01/30 01:23:50;;;;;;;13.27;2.13;;;;;;;5.75;68.52;101065.28;5042632;28;20672;-81
2022/01/30 01:26:16;;;;;;;11.80;2.93;;;;;;;5.73;68.02;101060.06;5041184;28;20726;-81
2022/01/30 01:28:44;;;;;;;16.03;3.20;;;;;;;5.72;67.66;101062.78;5040825;28;20331;-81
2022/01/30 01:31:12;;;;;;;12.87;2.27;;;;;;;5.73;68.16;101059.22;5034766;28;20218;-81
2022/01/30 01:33:52;;;;;;;10.30;2.43;;;;;;;5.73;68.24;101067.97;5043914;28;20202;-81
2022/01/30 01:36:19;;;;;;;12.00;2.67;;;;;;;5.77;68.25;101060.81;5041468;28;20202;-81
2022/01/30 01:38:46;;;;;;;13.57;1.90;;;;;;;5.76;68.27;101064.38;5042213;28;20658;-81
2022/01/30 01:41:17;;;;;;;16.90;2.87;;;;;;;5.72;68.29;101062.78;5040353;28;20237;-82
2022/01/30 01:43:43;;;;;;;16.00;2.67;;;;;;;5.73;68.38;101061.88;5040279;28;20217;-82
2022/01/30 01:46:15;;;;;;;13.57;2.33;;;;;;;5.70;67.90;101040.84;5043973;28;20216;-81
2022/01/30 01:48:45;;;;;;;14.93;2.40;;;;;;;5.69;68.35;101042.63;5043446;28;20412;-82
2022/01/30 01:51:18;;;;;;;10.30;2.20;;;;;;;5.59;68.25;101020.94;5046024;28;20916;-82
2022/01/30 01:53:46;;;;;;;15.17;2.77;;;;;;;5.59;68.39;101012.16;5045950;28;20217;-82
2022/01/30 01:56:14;;;;;;;15.47;3.03;;;;;;;5.57;68.31;101029.84;5039851;28;20203;-82
2022/01/30 01:58:40;;;;;;;9.73;2.57;;;;;;;5.55;68.42;101019.31;5043617;28;20279;-82
2022/01/30 02:01:07;;;;;;;9.17;2.70;;;;;;;5.52;68.67;101013.31;5047175;28;20210;-82
2022/01/30 02:03:35;;;;;;;10.50;2.00;;;;;;;5.52;69.11;101019.47;5035046;28;20214;-82
2022/01/30 02:06:04;;;;;;;8.93;2.43;;;;;;;5.51;68.74;101023.03;5027624;28;20261;-82
2022/01/30 02:08:37;;;;;;;14.50;2.70;;;;;;;5.47;69.12;101020.53;5037601;28;20233;-83
2022/01/30 02:11:07;;;;;;;12.97;3.27;;;;;;;5.45;69.33;101028.50;5041258;28;20300;-82
2022/01/30 02:13:57;;;;;;;14.20;2.63;;;;;;;5.44;69.30;101041.78;5038853;28;20213;-82
2022/01/30 02:24:54;;;;;;;8.87;2.10;;;;;;;5.36;70.25;101018.28;5052330;28;20216;-82
2022/01/30 02:27:23;;;;;;;10.37;2.33;;;;;;;5.38;70.10;101016.44;5046777;28;20304;-82
2022/01/30 02:29:50;;;;;;;13.20;3.13;;;;;;;5.32;70.31;101015.81;5032977;28;20226;-82
2022/01/30 02:32:17;;;;;;;11.37;2.93;;;;;;;5.32;70.45;101023.72;5042468;28;20593;-83
2022/01/30 02:34:44;;;;;;;9.87;2.17;;;;;;;5.33;70.39;101005.19;5050645;28;20228;-83
2022/01/30 02:37:12;;;;;;;8.30;2.20;;;;;;;5.33;70.46;101001.69;5049006;28;20794;-79
2022/01/30 02:39:39;;;;;;;11.20;2.40;;;;;;;5.34;70.19;101013.97;5047753;28;20206;-82
2022/01/30 02:42:07;;;;;;;13.73;2.40;;;;;;;5.34;70.07;101012.19;5040100;28;20216;-83
2022/01/30 02:44:39;;;;;;;12.10;2.87;;;;;;;5.35;70.24;101000.72;5040995;28;20238;-82
2022/01/30 02:47:09;;;;;;;12.17;1.90;;;;;;;5.33;70.51;101002.56;5034032;28;20246;-82
2022/01/30 02:49:46;;;;;;;9.13;2.23;;;;;;;5.31;70.35;100993.81;5039057;28;20274;-81
2022/01/30 02:52:14;;;;;;;11.63;2.10;;;;;;;5.27;69.83;101004.53;5042208;28;20217;-81
2022/01/30 02:54:41;;;;;;;12.57;2.40;;;;;;;5.20;70.21;101022.38;5038594;28;20210;-82
2022/01/30 02:57:10;;;;;;;12.47;2.13;;;;;;;5.19;69.72;101026.81;5054668;28;20213;-81
2022/01/30 02:59:37;;;;;;;8.37;2.40;;;;;;;5.23;70.02;101017.00;5039925;28;20206;-81
2022/01/30 03:02:05;;;;;;;13.30;2.60;;;;;;;5.21;70.06;101010.88;5044068;28;20236;-81
2022/01/30 03:04:31;;;;;;;10.00;2.40;;;;;;;5.21;69.74;101018.81;5038889;28;20217;-81
2022/01/30 03:06:58;;;;;;;19.47;2.90;;;;;;;5.20;70.24;101025.88;5034183;28;20206;-81
2022/01/30 03:09:24;;;;;;;12.83;2.50;;;;;;;5.18;70.41;101040.06;5033810;28;20230;-81
2022/01/30 03:11:51;;;;;;;14.47;2.80;;;;;;;5.14;70.72;101023.47;5033188;28;20202;-82
2022/01/30 03:14:19;;;;;;;16.37;2.27;;;;;;;5.13;71.01;101016.47;5037456;28;20220;-81
2022/01/30 03:16:45;;;;;;;15.87;3.40;;;;;;;5.11;71.00;101020.94;5051833;28;20213;-82
2022/01/30 03:19:12;;;;;;;16.03;2.83;;;;;;;5.14;71.12;101039.31;5040730;28;20230;-81
2022/01/30 03:21:38;;;;;;;10.07;2.13;;;;;;;5.10;71.08;101048.25;5035434;28;20305;-82
2022/01/30 03:24:06;;;;;;;12.53;2.20;;;;;;;5.15;70.92;101074.50;5046690;28;20217;-81
2022/01/30 03:26:38;;;;;;;10.87;3.00;;;;;;;5.13;70.78;101042.00;5036333;28;20206;-82
2022/01/30 03:29:06;;;;;;;11.23;2.23;;;;;;;5.13;70.69;101050.78;5040473;28;20229;-82
2022/01/30 03:31:37;;;;;;;11.20;2.53;;;;;;;5.15;70.45;101058.66;5043848;28;20583;-82
2022/01/30 03:34:04;;;;;;;13.90;2.60;;;;;;;5.12;70.62;101066.69;5036842;28;20202;-82
2022/01/30 03:36:31;;;;;;;15.83;3.23;;;;;;;5.10;70.98;101060.59;5033501;28;20212;-82
2022/01/30 03:38:58;;;;;;;16.93;2.33;;;;;;;5.11;70.98;101072.88;5040838;28;20228;-82
2022/01/30 03:41:25;;;;;;;14.00;2.77;;;;;;;5.15;71.14;101077.13;5038954;28;20301;-82
2022/01/30 03:43:51;;;;;;;9.77;1.90;;;;;;;5.16;70.71;101069.16;5035374;28;20201;-81
2022/01/30 03:46:18;;;;;;;14.93;2.80;;;;;;;5.17;70.82;101062.97;5047535;28;20917;-82
2022/01/30 03:48:46;;;;;;;14.00;2.70;;;;;;;5.16;71.18;101076.22;5034970;28;20234;-81
2022/01/30 03:51:13;;;;;;;11.67;2.57;;;;;;;5.16;71.18;101069.16;5035834;28;20215;-81
2022/01/30 03:53:40;;;;;;;15.83;3.07;;;;;;;5.16;71.04;101078.88;5036254;28;20202;-81
2022/01/30 03:56:07;;;;;;;12.13;3.00;;;;;;;5.17;71.07;101086.72;5044227;28;20738;-82
2022/01/30 03:58:34;;;;;;;11.53;2.20;;;;;;;5.15;70.61;101070.09;5044776;28;20232;-82
2022/01/30 04:01:01;;;;;;;13.63;3.50;;;;;;;5.15;70.78;101078.00;5032957;28;20206;-82
2022/01/30 04:03:27;;;;;;;14.53;3.30;;;;;;;5.11;70.94;101097.50;5047680;28;20217;-81
2022/01/30 04:05:56;;;;;;;11.73;2.40;;;;;;;5.11;71.14;101107.19;5050496;28;20564;-82
2022/01/30 04:08:23;;;;;;;13.60;2.67;;;;;;;5.10;70.86;101106.31;5042550;28;20244;-81
2022/01/30 04:10:49;;;;;;;10.27;2.33;;;;;;;5.07;71.36;101103.78;5019619;28;20214;-81
2022/01/30 04:13:16;;;;;;;6.43;1.50;;;;;;;5.10;71.15;101106.31;5033159;28;20216;-81
2022/01/30 04:15:43;;;;;;;12.23;2.70;;;;;;;5.09;71.31;101094.03;5041079;28;20213;-82
2022/01/30 04:18:10;;;;;;;14.20;2.63;;;;;;;5.07;71.43;101082.66;5032637;28;20623;-82
2022/01/30 04:20:37;;;;;;;10.43;2.33;;;;;;;5.08;71.42;101092.31;5035491;28;20201;-81
2022/01/30 04:23:05;;;;;;;13.60;2.37;;;;;;;5.05;71.16;101087.13;5038249;28;20229;-82
2022/01/30 04:25:32;;;;;;;10.70;2.27;;;;;;;5.03;71.58;101102.16;5042016;28;20572;-81
2022/01/30 04:27:59;;;;;;;16.13;2.80;;;;;;;5.01;71.50;101111.06;5039641;28;20851;-81
2022/01/30 04:30:26;;;;;;;14.80;3.43;;;;;;;5.03;71.66;101117.13;5035294;28;20240;-81
2022/01/30 04:32:53;;;;;;;17.27;3.20;;;;;;;4.99;71.38;101120.81;5028245;28;20608;-82
2022/01/30 04:35:24;;;;;;;11.83;2.23;;;;;;;4.95;71.35;101105.97;5022648;28;20206;-84
2022/01/30 04:38:03;;;;;;;12.70;2.30;;;;;;;4.94;71.80;101104.25;5024246;28;20218;-83
2022/01/30 04:41:06;;;;;;;12.60;2.40;;;;;;;4.94;71.31;101088.41;5026636;28;20198;-82
2022/01/30 04:57:55;;;;;;;10.93;2.30;;;;;;;4.75;71.17;101089.00;4923148;29;20222;-83
2022/01/30 05:00:51;;;;;;;16.70;2.60;;;;;;;4.71;71.00;101087.38;5004467;28;20209;-83
2022/01/30 05:06:04;;;;;;;15.37;3.23;;;;;;;4.67;71.49;101059.38;5023819;28;20202;-83
2022/01/30 05:08:31;;;;;;;18.80;3.80;;;;;;;4.65;71.48;101100.78;5026544;28;20751;-83
2022/01/30 05:10:58;;;;;;;5.87;1.70;;;;;;;4.66;72.32;101114.84;5034092;28;20366;-83
2022/01/30 05:13:30;;;;;;;13.03;2.97;;;;;;;4.64;73.51;101099.06;5030077;28;20202;-82
2022/01/30 05:15:57;;;;;;;18.80;3.57;;;;;;;4.64;74.52;101104.34;5036307;28;20202;-83
2022/01/30 05:18:25;;;;;;;14.70;2.40;;;;;;;4.62;74.10;101105.28;5042483;28;20607;-82
2022/01/30 05:20:53;;;;;;;12.27;2.57;;;;;;;4.60;74.30;101097.44;5043306;28;20879;-82
2022/01/30 05:23:20;;;;;;;14.27;2.97;;;;;;;4.58;73.99;101108.94;5046655;28;20300;-82
2022/01/30 05:25:47;;;;;;;11.63;2.50;;;;;;;4.50;73.75;101115.28;5052182;28;20216;-82
2022/01/30 05:28:15;;;;;;;13.77;3.43;;;;;;;4.50;73.51;101114.44;5043555;28;20234;-82
2022/01/30 05:30:44;;;;;;;17.43;2.93;;;;;;;4.47;73.66;101125.97;5038659;28;20226;-82
2022/01/30 05:33:11;;;;;;;16.43;3.33;;;;;;;4.44;73.65;101133.09;5038005;28;20208;-82
2022/01/30 05:35:38;;;;;;;14.90;2.57;;;;;;;4.43;73.58;101132.25;5040268;28;20213;-83
2022/01/30 05:38:06;;;;;;;10.63;2.63;;;;;;;4.40;73.55;101124.41;5055138;28;20710;-83
2022/01/30 05:40:35;;;;;;;20.27;3.67;;;;;;;4.41;73.54;101133.19;5046923;28;20206;-83
2022/01/30 05:43:02;;;;;;;15.80;2.77;;;;;;;4.41;73.59;101127.91;5048229;28;20676;-82
2022/01/30 05:45:32;;;;;;;18.03;3.63;;;;;;;4.39;73.22;101135.88;5038883;28;20269;-83
2022/01/30 05:48:04;;;;;;;17.50;4.27;;;;;;;4.43;73.27;101134.00;5040590;28;20256;-82
2022/01/30 05:50:31;;;;;;;18.30;3.97;;;;;;;4.41;73.14;101149.88;5040481;28;20264;-83
2022/01/30 05:52:58;;;;;;;21.07;3.97;;;;;;;4.43;73.21;101192.03;5046797;28;20217;-83
2022/01/30 05:55:25;;;;;;;16.73;2.90;;;;;;;4.42;73.07;101180.63;5045965;28;20229;-84
2022/01/30 05:57:51;;;;;;;17.20;3.53;;;;;;;4.41;73.19;101163.06;5039721;28;20308;-83
2022/01/30 06:00:18;;;;;;;22.17;4.00;;;;;;;4.42;73.18;101158.66;5049435;28;20205;-83
2022/01/30 06:02:46;;;;;;;21.53;3.53;;;;;;;4.45;73.24;101161.22;5043163;28;20205;-83
2022/01/30 06:05:16;;;;;;;22.77;5.20;;;;;;;4.41;73.10;101178.88;5048019;28;20216;-83
2022/01/30 06:07:50;;;;;;;21.27;4.77;;;;;;;4.36;73.64;101180.78;5053472;28;20238;-83
2022/01/30 06:10:17;;;;;;;16.33;3.87;;;;;;;4.37;73.54;101177.25;5032333;28;20221;-82
2022/01/30 06:12:43;;;;;;;14.00;3.67;;;;;;;4.30;73.88;101186.22;5033285;28;20297;-82
2022/01/30 06:15:10;;;;;;;15.30;4.30;;;;;;;4.32;74.57;101197.59;5045742;28;20205;-82
2022/01/30 06:17:37;;;;;;;14.63;3.47;;;;;;;4.31;74.25;101185.31;5043250;28;20238;-82
2022/01/30 06:20:05;;;;;;;17.70;4.37;;;;;;;4.27;74.27;101188.13;5049023;28;20217;-82
2022/01/30 06:22:33;;;;;;;21.60;4.23;;;;;;;4.22;73.88;101175.06;5044535;28;20210;-82
2022/01/30 06:24:59;;;;;;;20.47;3.67;;;;;;;4.22;74.17;101185.59;5037225;28;20281;-82
2022/01/30 06:27:26;;;;;;;21.10;4.70;;;;;;;4.19;73.94;101173.38;5034581;28;20344;-82
2022/01/30 06:29:53;;;;;;;18.17;3.80;;;;;;;4.14;73.83;101133.09;5032430;28;20241;-82
2022/01/30 06:32:19;;;;;;;17.67;3.90;;;;;;;4.12;73.72;101155.16;5026498;28;20559;-82
2022/01/30 06:34:46;;;;;;;34.90;4.87;;;;;;;4.13;73.77;101149.81;5023039;28;20578;-82
2022/01/30 06:37:12;;;;;;;21.70;3.60;;;;;;;4.11;72.86;101162.19;5021514;28;20223;-83
2022/01/30 06:39:40;;;;;;;18.63;4.80;;;;;;;4.07;72.94;101154.41;5025024;28;20198;-83
2022/01/30 06:42:08;;;;;;;17.97;3.63;;;;;;;4.06;72.54;101155.31;5026872;28;20213;-82
2022/01/30 06:44:35;;;;;;;18.70;3.80;;;;;;;4.06;72.21;101160.59;5025596;28;20210;-83
2022/01/30 06:47:01;;;;;;;17.17;3.90;;;;;;;4.06;72.34;101160.59;5026716;28;20207;-83
2022/01/30 06:49:28;;;;;;;17.10;4.00;;;;;;;4.01;71.21;101163.34;5026886;28;20237;-82
2022/01/30 06:51:54;;;;;;;20.60;3.70;;;;;;;4.01;71.82;101178.28;5026125;28;20207;-83
2022/01/30 06:54:21;;;;;;;24.77;4.17;;;;;;;4.05;71.75;101175.53;5021828;28;20218;-82
2022/01/30 06:56:49;;;;;;;23.10;4.23;;;;;;;4.05;71.92;101183.44;5026421;28;20302;-82
2022/01/30 06:59:15;;;;;;;24.33;4.03;;;;;;;4.00;71.68;101177.44;5028765;28;20229;-82
2022/01/30 07:01:42;;;;;;;21.07;4.03;;;;;;;3.98;72.40;101179.25;5027285;28;20204;-82
2022/01/30 07:04:08;;;;;;;22.40;4.57;;;;;;;3.99;72.41;101173.06;5020030;28;20213;-82
2022/01/30 07:06:35;;;;;;;31.10;5.37;;;;;;;4.00;72.23;101176.56;5028797;28;20316;-83
2022/01/30 07:09:02;;;;;;;22.70;4.40;;;;;;;4.01;71.66;101178.28;5023372;28;20249;-82
2022/01/30 07:11:29;;;;;;;25.07;4.43;;;;;;;4.03;72.08;101200.22;5020865;28;20219;-83
2022/01/30 07:13:57;;;;;;;17.00;4.20;;;;;;;4.04;71.75;101207.22;5034178;28;20310;-83
2022/01/30 07:16:24;;;;;;;21.87;3.97;;;;;;;4.06;71.50;101206.25;5041618;28;20660;-83
2022/01/30 07:18:51;;;;;;;22.00;4.30;;;;;;;4.06;70.78;101231.75;5037687;28;20236;-82
2022/01/30 07:21:17;;;;;;;20.23;5.17;;;;;;;4.05;70.54;101233.53;5045903;28;20201;-82
2022/01/30 07:23:44;;;;;;;23.23;4.97;;;;;;;4.05;71.12;101233.53;5034023;28;20297;-82
2022/01/30 07:26:11;;;;;;;23.47;4.37;;;;;;;4.04;70.52;101244.97;5034772;28;20221;-82
2022/01/30 07:28:37;;;;;;;23.10;4.33;;;;;;;4.08;70.24;101261.56;5031871;28;20224;-82
2022/01/30 07:31:05;;;;;;;27.47;4.73;;;;;;;4.09;70.16;101260.66;5021320;28;20885;-82
2022/01/30 07:33:33;;;;;;;27.07;4.97;;;;;;;4.08;69.85;101270.34;5024471;28;20644;-81
2022/01/30 07:36:00;;;;;;;24.87;4.67;;;;;;;4.09;69.87;101273.84;5027450;28;20199;-82
2022/01/30 07:38:28;;;;;;;18.50;4.00;;;;;;;4.08;69.65;101270.34;5022118;28;20226;-83
2022/01/30 07:40:55;;;;;;;24.40;4.50;;;;;;;4.14;69.76;101296.53;5028069;28;20729;-83
2022/01/30 07:43:21;;;;;;;24.27;5.50;;;;;;;4.11;69.36;101299.28;5029582;28;20292;-82
2022/01/30 07:45:48;;;;;;;23.77;5.60;;;;;;;4.14;69.74;101288.63;5026273;28;20198;-83
2022/01/30 07:48:16;;;;;;;27.80;5.40;;;;;;;4.19;69.66;101293.78;5026041;28;20226;-83
2022/01/30 07:50:43;;;;;;;19.60;4.27;;;;;;;4.22;69.21;101287.56;5025544;28;20243;-82
2022/01/30 07:53:09;;;;;;;26.30;3.87;;;;;;;4.23;69.25;101294.56;5021268;28;20696;-82
2022/01/30 07:55:36;;;;;;;25.90;5.77;;;;;;;4.25;69.29;101285.72;5026068;28;20199;-82
2022/01/30 07:58:02;;;;;;;20.33;4.70;;;;;;;4.23;68.57;101289.28;5026418;28;20223;-83
2022/01/30 08:00:29;;;;;;;21.23;4.10;;;;;;;4.21;68.60;101309.56;5025583;28;20210;-83
2022/01/30 08:02:55;;;;;;;27.10;4.27;;;;;;;4.23;68.42;101315.66;5035133;28;20206;-84
2022/01/30 08:05:23;;;;;;;32.97;5.80;;;;;;;4.25;68.16;101322.63;5032248;28;20210;-83
2022/01/30 08:07:50;;;;;;;19.90;3.53;;;;;;;4.26;67.98;101320.84;5031108;28;20218;-83
2022/01/30 08:10:16;;;;;;;15.17;4.93;;;;;;;4.25;68.58;101330.53;5021951;28;20609;-83
2022/01/30 08:12:43;;;;;;;25.57;4.33;;;;;;;4.27;67.80;101338.41;5035519;28;20297;-82
2022/01/30 08:15:10;;;;;;;20.10;4.33;;;;;;;4.30;67.77;101340.97;5030273;28;20206;-82
2022/01/30 08:17:38;;;;;;;29.17;5.47;;;;;;;4.31;67.57;101354.09;5031117;28;20227;-83
2022/01/30 08:20:06;;;;;;;15.27;4.63;;;;;;;4.34;67.79;101361.06;5025726;28;20202;-82
2022/01/30 08:22:44;;;;;;;28.27;5.93;;;;;;;4.33;67.85;101376.00;5030361;28;20669;-81
2022/01/30 08:25:10;;;;;;;29.27;4.67;;;;;;;4.35;67.82;101374.19;5021913;28;20203;-82
2022/01/30 08:27:37;;;;;;;16.30;3.87;;;;;;;4.38;67.94;101384.66;5020246;28;20226;-83
2022/01/30 08:30:04;;;;;;;30.57;4.40;;;;;;;4.40;67.64;101372.31;5019101;28;20766;-83
2022/01/30 08:32:31;;;;;;;27.50;4.70;;;;;;;4.42;68.06;101375.78;5027078;28;20589;-82
2022/01/30 08:34:58;;;;;;;21.70;4.17;;;;;;;4.46;68.09;101390.63;5021868;28;20610;-82
2022/01/30 08:37:26;;;;;;;20.40;4.60;;;;;;;4.52;67.83;101386.94;5028752;28;20236;-82
2022/01/30 08:39:54;;;;;;;23.27;4.47;;;;;;;4.56;67.57;101399.16;5026741;28;20584;-82
2022/01/30 08:42:20;;;;;;;18.87;4.00;;;;;;;4.61;67.73;101391.13;5029118;28;20214;-83
2022/01/30 08:44:47;;;;;;;13.83;4.37;;;;;;;4.61;67.11;101391.13;5034066;28;20332;-82
2022/01/30 08:47:13;;;;;;;19.83;4.90;;;;;;;4.63;67.03;101379.63;5028744;28;20222;-82
2022/01/30 08:49:40;;;;;;;20.53;4.70;;;;;;;4.63;66.97;101373.47;5029190;28;20591;-82
2022/01/30 08:52:09;;;;;;;22.23;4.27;;;;;;;4.63;66.53;101371.72;5025473;28;20732;-83
2022/01/30 08:54:36;;;;;;;20.63;4.37;;;;;;;4.60;65.92;101348.03;5022077;28;20210;-83
2022/01/30 08:57:04;;;;;;;20.77;4.47;;;;;;;4.63;66.19;101391.94;5032577;28;20205;-83
2022/01/30 08:59:31;;;;;;;12.93;3.33;;;;;;;4.67;66.00;101398.84;5027161;28;20297;-82
2022/01/30 09:01:57;;;;;;;25.47;5.37;;;;;;;4.70;65.53;101380.31;5027520;28;20289;-82
2022/01/30 09:04:24;;;;;;;15.73;4.87;;;;;;;4.70;65.42;101398.75;5031858;28;20216;-82
2022/01/30 09:06:51;;;;;;;16.27;4.10;;;;;;;4.74;65.00;101405.69;5026275;28;20207;-82
2022/01/30 09:09:17;;;;;;;22.43;4.83;;;;;;;4.74;65.39;101403.94;5032326;28;20207;-81
2022/01/30 09:11:44;;;;;;;19.43;3.73;;;;;;;4.73;64.74;101396.91;5028112;28;20226;-82
2022/01/30 09:14:12;;;;;;;25.30;4.50;;;;;;;4.75;64.45;101392.47;5026350;28;20257;-82
2022/01/30 09:16:39;;;;;;;20.27;4.97;;;;;;;4.80;64.47;101414.31;5027237;28;20696;-82
2022/01/30 09:19:05;;;;;;;15.93;4.40;;;;;;;4.82;64.62;101417.78;5027914;28;20326;-82
2022/01/30 09:21:32;;;;;;;24.57;4.57;;;;;;;4.83;63.84;101416.03;5033888;28;20676;-82
2022/01/30 09:24:00;;;;;;;22.93;4.87;;;;;;;4.86;63.86;101419.41;5035966;28;20212;-82
2022/01/30 09:26:26;;;;;;;22.40;5.23;;;;;;;4.90;64.02;101414.94;5029076;28;20219;-83
2022/01/30 09:28:53;;;;;;;20.53;4.50;;;;;;;4.87;63.85;101415.00;5033397;28;20305;-83
2022/01/30 09:31:21;;;;;;;24.20;4.87;;;;;;;4.88;63.49;101428.16;5030481;28;20232;-83
2022/01/30 09:33:48;;;;;;;18.80;4.97;;;;;;;4.92;64.04;101430.72;5031739;28;20206;-83
2022/01/30 09:36:14;;;;;;;19.77;4.67;;;;;;;4.98;64.02;101428.78;5027231;28;20210;-83
2022/01/30 09:38:41;;;;;;;23.10;5.50;;;;;;;4.99;64.00;101430.53;5036014;28;20222;-83
2022/01/30 09:41:09;;;;;;;27.07;5.53;;;;;;;5.03;63.99;101447.13;5031347;28;20195;-83
2022/01/30 09:43:37;;;;;;;29.03;5.53;;;;;;;5.05;63.82;101459.38;5027947;28;20214;-83
2022/01/30 09:46:04;;;;;;;19.10;3.93;;;;;;;5.07;64.39;101464.63;5029788;28;20201;-82
2022/01/30 09:48:36;;;;;;;19.90;4.40;;;;;;;5.10;64.30;101453.97;5026729;28;20611;-82
2022/01/30 09:51:05;;;;;;;32.77;5.17;;;;;;;5.06;64.34;101468.16;5030006;28;20214;-82
2022/01/30 09:53:32;;;;;;;23.23;5.07;;;;;;;5.09;64.49;101474.22;5023741;28;20210;-83
2022/01/30 09:55:59;;;;;;;23.03;4.50;;;;;;;5.13;64.60;101451.25;5020901;28;20211;-82
2022/01/30 09:58:25;;;;;;;19.73;4.87;;;;;;;5.17;64.65;101459.06;5028051;28;20229;-83
2022/01/30 10:00:52;;;;;;;19.20;4.40;;;;;;;5.19;64.74;101475.72;5025026;28;20221;-83
2022/01/30 10:03:21;;;;;;;19.67;4.33;;;;;;;5.23;64.56;101473.84;5022640;28;20313;-83
2022/01/30 10:06:11;;;;;;;18.43;4.47;;;;;;;5.27;64.80;101472.84;5026704;28;20214;-83
2022/01/30 10:08:42;;;;;;;30.40;5.17;;;;;;;5.29;64.91;101471.03;5023623;28;20682;-82
2022/01/30 10:14:04;;;;;;;27.43;7.10;;;;;;;5.29;65.28;101470.16;5017276;28;20218;-82
2022/01/30 10:16:35;;;;;;;24.27;7.50;;;;;;;5.31;65.30;101498.28;5020465;28;20213;-82
2022/01/30 10:19:10;;;;;;;26.37;5.20;;;;;;;5.32;65.43;101497.38;5028680;28;20229;-82
2022/01/30 10:21:38;;;;;;;30.57;6.53;;;;;;;5.30;65.21;101499.19;5024621;28;20601;-82
2022/01/30 10:24:21;;;;;;;20.50;4.70;;;;;;;5.30;65.24;101512.38;5018843;28;20721;-82
2022/01/30 10:26:48;;;;;;;32.37;6.60;;;;;;;5.28;65.44;101506.28;5026669;28;20198;-83
2022/01/30 10:29:22;;;;;;;23.33;4.57;;;;;;;5.31;65.56;101507.97;5021728;28;20229;-83
2022/01/30 10:32:04;;;;;;;22.77;5.10;;;;;;;5.30;65.91;101511.50;5019789;28;20227;-83
2022/01/30 10:34:31;;;;;;;25.47;5.33;;;;;;;5.30;65.90;101508.88;5026096;28;20214;-83
2022/01/30 10:37:22;;;;;;;19.37;5.33;;;;;;;5.32;65.80;101513.22;5024872;28;20206;-82
2022/01/30 10:40:13;;;;;;;31.60;5.53;;;;;;;5.31;65.92;101505.31;5032416;28;20225;-83
2022/01/30 10:42:42;;;;;;;30.30;5.33;;;;;;;5.33;65.97;101508.78;5027828;28;20199;-83
2022/01/30 10:45:11;;;;;;;17.73;5.07;;;;;;;5.33;65.88;101506.16;5022417;28;20249;-82
2022/01/30 10:47:38;;;;;;;20.33;5.77;;;;;;;5.36;65.86;101509.59;5022209;28;20231;-82
2022/01/30 10:50:13;;;;;;;24.00;4.73;;;;;;;5.40;65.87;101497.13;5028377;28;20513;-83
2022/01/30 10:52:53;;;;;;;23.00;5.37;;;;;;;5.41;66.02;101499.72;5022861;28;20194;-83
2022/01/30 10:55:36;;;;;;;25.00;5.20;;;;;;;5.45;65.85;101493.44;5031160;28;20281;-83
2022/01/30 10:58:03;;;;;;;26.47;5.27;;;;;;;5.48;66.22;101498.66;5025296;28;20308;-82
2022/01/30 11:00:38;;;;;;;21.27;4.03;;;;;;;5.50;66.08;101491.56;5024159;28;20206;-82
2022/01/30 11:03:06;;;;;;;22.73;5.23;;;;;;;5.52;66.03;101491.50;5020071;28;20194;-83
2022/01/30 11:05:34;;;;;;;21.87;4.80;;;;;;;5.51;65.90;101503.84;5025736;28;20237;-83
2022/01/30 11:08:02;;;;;;;23.07;5.20;;;;;;;5.53;66.17;101488.81;5023753;28;20223;-83
2022/01/30 11:10:31;;;;;;;22.43;5.70;;;;;;;5.54;65.79;101498.50;5025599;28;20314;-82
2022/01/30 11:13:08;;;;;;;20.50;4.90;;;;;;;5.56;65.80;101496.63;5025655;28;20253;-83
2022/01/30 11:15:38;;;;;;;18.50;5.07;;;;;;;5.56;65.64;101501.91;5023426;28;20199;-82
2022/01/30 11:18:05;;;;;;;42.87;5.37;;;;;;;5.56;65.36;101496.63;5022417;28;20230;-83
2022/01/30 11:20:32;;;;;;;19.77;4.73;;;;;;;5.56;65.32;101496.63;5022398;28;20211;-82
2022/01/30 11:23:03;;;;;;;31.97;5.40;;;;;;;5.57;65.33;101498.38;5021485;28;20214;-83
2022/01/30 11:25:33;;;;;;;28.87;4.73;;;;;;;5.61;65.70;101503.56;5022048;28;20207;-82
2022/01/30 11:28:03;;;;;;;24.37;5.37;;;;;;;5.61;65.14;101515.00;5021198;28;20219;-83
2022/01/30 11:30:30;;;;;;;30.10;5.57;;;;;;;5.62;64.95;101514.09;5022005;28;20301;-82
2022/01/30 11:32:58;;;;;;;25.57;4.77;;;;;;;5.64;64.74;101514.06;5025131;28;20198;-82
2022/01/30 11:35:24;;;;;;;34.57;6.10;;;;;;;5.62;64.20;101506.16;5022768;28;20210;-82
2022/01/30 11:37:52;;;;;;;26.27;5.40;;;;;;;5.62;64.37;101511.47;5024068;28;20248;-83
2022/01/30 11:40:21;;;;;;;32.03;5.97;;;;;;;5.66;64.28;101517.53;5025351;28;20628;-82
2022/01/30 11:42:49;;;;;;;29.17;5.80;;;;;;;5.64;64.77;101512.28;5026440;28;20668;-83
2022/01/30 11:45:19;;;;;;;27.20;5.03;;;;;;;5.62;64.48;101523.81;5021773;28;20207;-83
2022/01/30 11:47:51;;;;;;;23.50;4.80;;;;;;;5.62;64.43;101522.03;5019555;28;20689;-84
2022/01/30 11:50:19;;;;;;;32.23;5.37;;;;;;;5.65;64.48;101534.28;5023209;28;20916;-83
2022/01/30 11:52:58;;;;;;;24.80;5.33;;;;;;;5.62;64.57;101532.59;5021777;28;20345;-83
2022/01/30 11:55:46;;;;;;;24.47;5.10;;;;;;;5.63;64.46;101536.09;5019582;28;20261;-83
2022/01/30 11:58:39;;;;;;;23.57;5.80;;;;;;;5.63;64.53;101544.03;5021230;28;20231;-83
2022/01/30 12:01:13;;;;;;;28.90;6.00;;;;;;;5.63;64.13;101538.75;5019213;28;20217;-83
2022/01/30 12:03:52;;;;;;;24.37;5.37;;;;;;;5.65;64.48;101544.84;5018064;28;20214;-83
2022/01/30 12:06:35;;;;;;;32.50;5.57;;;;;;;5.66;64.05;101543.94;5027798;28;20214;-83
2022/01/30 12:09:04;;;;;;;23.13;4.83;;;;;;;5.65;63.86;101539.56;5027375;28;20225;-84